Time;durP1;ratioP1;P1;durP2;ratioP2;P2;SDS_P1;SDS_P2;PMS_P1;PMS_P2;Temp;Humidity;BMP_temperature;BMP_pressure;BME280_temperature;BME280_humidity;BME280_pressure;Samples;Min_cycle;Max_cycle;Signal;HPM_P1;HPM_P2
2022/10/23 00:00:59;;;;;;;16.23;14.95;;;;;;;8.94;73.33;101529.91;465379;114;930391;-75
2022/10/23 00:02:03;;;;;;;15.31;14.24;;;;;;;8.95;73.36;101534.33;465357;114;922728;-77
2022/10/23 00:03:06;;;;;;;14.29;13.23;;;;;;;8.96;73.41;101529.73;465362;114;923037;-75
2022/10/23 00:04:18;;;;;;;15.03;13.86;;;;;;;8.97;73.44;101535.00;465321;114;930272;-76
2022/10/23 00:05:22;;;;;;;12.47;11.60;;;;;;;8.97;73.48;101528.72;465173;114;922940;-76
2022/10/23 00:06:26;;;;;;;14.94;13.36;;;;;;;8.98;73.55;101530.41;465301;114;922465;-76
2022/10/23 00:07:29;;;;;;;14.49;13.28;;;;;;;8.98;73.45;101531.27;465346;114;922438;-77
2022/10/23 00:08:32;;;;;;;14.89;13.69;;;;;;;8.98;73.44;101523.10;465445;114;922588;-76
2022/10/23 00:09:35;;;;;;;13.03;12.13;;;;;;;8.98;73.52;101530.41;465392;114;922424;-77
2022/10/23 00:10:41;;;;;;;14.79;13.69;;;;;;;8.98;73.53;101523.10;465402;114;922489;-76
2022/10/23 00:11:46;;;;;;;14.43;13.32;;;;;;;8.99;73.53;101523.92;465211;114;923147;-77
2022/10/23 00:12:50;;;;;;;14.68;13.62;;;;;;;8.98;73.66;101522.25;465215;114;922502;-76
2022/10/23 00:13:56;;;;;;;13.75;12.65;;;;;;;9.00;73.61;101512.02;465354;114;922872;-76
2022/10/23 00:14:59;;;;;;;13.91;12.56;;;;;;;8.99;73.66;101515.76;465251;114;923067;-76
2022/10/23 00:16:03;;;;;;;13.82;12.82;;;;;;;9.00;73.58;101512.86;465447;114;922605;-76
2022/10/23 00:17:06;;;;;;;11.16;10.24;;;;;;;9.00;73.57;101512.86;465388;114;922494;-76
2022/10/23 00:18:09;;;;;;;13.27;12.27;;;;;;;9.00;73.59;101507.42;465412;114;922491;-76
2022/10/23 00:19:12;;;;;;;9.53;8.86;;;;;;;9.02;73.61;101509.97;465388;114;922447;-75
2022/10/23 00:20:16;;;;;;;9.49;8.80;;;;;;;9.02;73.66;101501.81;465271;114;922494;-76
2022/10/23 00:21:20;;;;;;;9.24;8.46;;;;;;;9.01;73.67;101497.39;465319;114;930470;-77
2022/10/23 00:22:23;;;;;;;9.43;8.54;;;;;;;9.02;73.71;101502.66;465464;114;922932;-76
2022/10/23 00:23:26;;;;;;;11.46;10.47;;;;;;;9.03;73.75;101489.91;465497;114;922802;-75
2022/10/23 00:24:29;;;;;;;8.72;8.12;;;;;;;9.04;73.82;101497.05;465453;114;922613;-76
2022/10/23 00:25:32;;;;;;;8.16;7.54;;;;;;;9.05;73.79;101493.27;465458;114;922516;-76
2022/10/23 00:26:38;;;;;;;8.16;7.58;;;;;;;9.05;73.81;101495.99;465432;114;923347;-75
2022/10/23 00:27:41;;;;;;;7.89;7.26;;;;;;;9.06;73.92;101493.09;465258;114;922462;-76
2022/10/23 00:28:48;;;;;;;8.27;7.54;;;;;;;9.07;73.89;101489.36;465336;114;923043;-75
2022/10/23 00:29:51;;;;;;;7.68;7.08;;;;;;;9.08;73.96;101492.92;465238;114;922974;-75
2022/10/23 00:30:55;;;;;;;7.28;6.74;;;;;;;9.09;73.98;101486.46;465364;113;922491;-76
2022/10/23 00:31:58;;;;;;;6.72;6.22;;;;;;;9.11;73.95;101481.66;465454;114;922735;-75
2022/10/23 00:33:01;;;;;;;6.57;6.08;;;;;;;9.11;74.05;101478.94;465329;114;922468;-75
2022/10/23 00:34:07;;;;;;;6.67;6.09;;;;;;;9.12;74.07;101486.08;465439;114;922448;-75
2022/10/23 00:35:10;;;;;;;7.23;6.58;;;;;;;9.12;74.09;101484.20;465224;114;922905;-75
2022/10/23 00:36:17;;;;;;;7.75;7.08;;;;;;;9.14;74.12;101484.03;465359;114;922445;-75
2022/10/23 00:37:21;;;;;;;7.98;7.37;;;;;;;9.14;74.16;101476.72;465242;114;922663;-75
2022/10/23 00:38:24;;;;;;;7.15;6.56;;;;;;;9.15;74.16;101483.83;465459;114;922568;-76
2022/10/23 00:39:27;;;;;;;7.04;6.46;;;;;;;9.16;74.17;101481.95;465427;114;923022;-76
2022/10/23 00:40:30;;;;;;;6.97;6.50;;;;;;;9.16;74.23;101480.08;465363;114;922490;-75
2022/10/23 00:41:34;;;;;;;5.96;5.47;;;;;;;9.17;74.18;101481.78;465371;114;930595;-76
2022/10/23 00:42:37;;;;;;;6.35;5.92;;;;;;;9.19;74.23;101481.60;465372;114;922588;-76
2022/10/23 00:44:02;;;;;;;5.58;5.06;;;;;;;9.19;74.25;101482.45;465406;114;923197;-75
2022/10/23 00:45:08;;;;;;;5.82;5.33;;;;;;;9.20;74.24;101483.30;464852;114;922552;-75
2022/10/23 00:46:11;;;;;;;5.86;5.43;;;;;;;9.20;74.26;101480.58;465232;114;922579;-76
2022/10/23 00:47:15;;;;;;;5.10;4.67;;;;;;;9.21;74.26;101479.52;465384;114;922816;-75
2022/10/23 00:48:18;;;;;;;5.48;4.97;;;;;;;9.22;74.33;101478.50;465331;114;922552;-75
2022/10/23 00:49:22;;;;;;;5.15;4.75;;;;;;;9.23;74.45;101476.63;465227;114;930597;-75
2022/10/23 00:50:27;;;;;;;4.83;4.53;;;;;;;9.25;74.34;101480.02;465328;114;922474;-76
2022/10/23 00:51:42;;;;;;;4.72;4.36;;;;;;;9.25;74.34;101475.42;456123;114;928943;-75
2022/10/23 00:52:48;;;;;;;4.64;4.29;;;;;;;9.26;74.34;101474.41;465429;112;923585;-76
2022/10/23 00:53:54;;;;;;;4.39;4.08;;;;;;;9.26;74.33;101479.00;473626;112;922622;-75
2022/10/23 00:55:01;;;;;;;4.44;4.06;;;;;;;9.26;74.37;101473.55;461892;114;922554;-76
2022/10/23 00:56:05;;;;;;;3.99;3.76;;;;;;;9.26;74.39;101466.23;463094;114;922837;-75
2022/10/23 00:57:11;;;;;;;3.94;3.62;;;;;;;9.29;74.39;101470.45;463141;114;922516;-75
2022/10/23 00:58:16;;;;;;;4.29;3.99;;;;;;;9.28;74.40;101466.88;462789;114;922546;-76
2022/10/23 00:59:21;;;;;;;4.07;3.41;;;;;;;9.29;74.52;101462.28;462993;114;922479;-76
2022/10/23 01:00:27;;;;;;;3.73;3.39;;;;;;;9.29;74.44;101468.58;463207;114;922927;-76
2022/10/23 01:01:30;;;;;;;3.87;3.48;;;;;;;9.29;74.52;101457.69;453501;116;923100;-76
2022/10/23 01:02:34;;;;;;;4.34;3.16;;;;;;;9.29;74.42;101463.13;453928;114;923316;-76
2022/10/23 01:03:37;;;;;;;3.69;3.39;;;;;;;9.30;74.44;101459.39;463300;114;922763;-76
2022/10/23 01:04:40;;;;;;;3.39;3.16;;;;;;;9.31;74.44;101452.07;463215;114;922556;-76
2022/10/23 01:05:47;;;;;;;4.15;3.85;;;;;;;9.31;74.46;101454.80;463233;114;922489;-74
2022/10/23 01:06:56;;;;;;;3.76;3.46;;;;;;;9.30;74.49;101456.67;463027;114;922955;-74
2022/10/23 01:08:06;;;;;;;4.37;3.81;;;;;;;9.32;74.47;101451.05;462172;114;922946;-75
2022/10/23 01:09:19;;;;;;;3.41;3.15;;;;;;;9.32;74.52;101453.77;462212;114;922526;-75
2022/10/23 01:10:40;;;;;;;4.34;3.29;;;;;;;9.31;74.46;101450.20;462980;114;922625;-76
2022/10/23 01:12:08;;;;;;;3.86;3.56;;;;;;;9.32;74.46;101448.33;463133;114;922517;-75
2022/10/23 01:13:17;;;;;;;3.54;3.24;;;;;;;9.32;74.50;101453.77;463104;114;923021;-75
2022/10/23 01:14:33;;;;;;;3.57;3.36;;;;;;;9.30;74.51;101444.94;463043;114;922617;-75
2022/10/23 01:15:40;;;;;;;3.47;3.22;;;;;;;9.30;74.58;101445.78;462786;114;922801;-76
2022/10/23 01:16:56;;;;;;;3.59;3.29;;;;;;;9.30;74.62;101445.78;465126;114;922473;-76
2022/10/23 01:18:08;;;;;;;3.63;3.41;;;;;;;9.30;74.63;101445.78;465258;114;923125;-76
2022/10/23 01:19:22;;;;;;;4.04;3.67;;;;;;;9.30;74.64;101445.78;464838;114;922668;-77
2022/10/23 01:20:37;;;;;;;3.37;3.07;;;;;;;9.30;74.65;101442.21;464892;114;922609;-76
2022/10/23 01:21:56;;;;;;;3.01;2.76;;;;;;;9.30;74.64;101445.78;465263;114;922484;-76
2022/10/23 01:23:14;;;;;;;3.24;2.69;;;;;;;9.30;74.70;101444.94;464900;114;923576;-76
2022/10/23 01:24:30;;;;;;;3.23;2.94;;;;;;;9.30;74.74;101444.94;465186;114;922634;-76
2022/10/23 01:25:59;;;;;;;3.47;3.06;;;;;;;9.29;74.73;101443.23;465160;114;923021;-76
2022/10/23 01:27:15;;;;;;;3.47;3.16;;;;;;;9.28;74.84;101439.67;465177;114;923472;-77
2022/10/23 01:28:30;;;;;;;3.79;3.44;;;;;;;9.28;74.80;101441.54;465232;114;922477;-77
2022/10/23 01:29:37;;;;;;;3.18;2.91;;;;;;;9.27;74.86;101440.69;465232;114;922571;-77
2022/10/23 01:30:43;;;;;;;3.44;3.19;;;;;;;9.26;74.98;101432.73;465206;113;922616;-75
2022/10/23 01:31:59;;;;;;;3.35;2.95;;;;;;;9.27;74.94;101442.56;465280;114;922694;-75
2022/10/23 01:33:05;;;;;;;3.16;2.96;;;;;;;9.28;75.01;101439.67;465228;114;922495;-75
2022/10/23 01:34:14;;;;;;;2.96;2.76;;;;;;;9.28;74.93;101438.82;464482;112;922573;-75
2022/10/23 01:35:30;;;;;;;3.29;2.99;;;;;;;9.28;74.94;101433.37;465137;114;922488;-75
2022/10/23 01:36:38;;;;;;;3.56;3.26;;;;;;;9.28;75.00;101436.09;465093;114;923464;-76
2022/10/23 01:37:44;;;;;;;3.07;2.87;;;;;;;9.28;74.97;101430.66;465188;114;922589;-76
2022/10/23 01:38:55;;;;;;;3.59;2.83;;;;;;;9.26;74.97;101436.30;465171;114;922613;-75
2022/10/23 01:40:02;;;;;;;3.66;3.36;;;;;;;9.28;74.92;101433.37;464743;114;922765;-75
2022/10/23 01:41:17;;;;;;;3.45;3.09;;;;;;;9.28;75.00;101430.66;455417;116;923076;-75
2022/10/23 01:42:24;;;;;;;3.21;2.90;;;;;;;9.28;74.95;101433.37;457847;114;923097;-75
2022/10/23 01:43:30;;;;;;;3.71;3.32;;;;;;;9.27;74.92;101428.95;465241;114;922501;-75
2022/10/23 01:44:40;;;;;;;3.48;2.98;;;;;;;9.27;75.00;101431.68;465257;114;922567;-76
2022/10/23 01:45:47;;;;;;;3.28;2.94;;;;;;;9.28;75.01;101428.78;465258;114;923052;-76
2022/10/23 01:46:53;;;;;;;3.61;3.27;;;;;;;9.28;75.04;101431.50;465213;114;923002;-76
2022/10/23 01:47:58;;;;;;;3.19;2.90;;;;;;;9.29;75.05;101430.48;465358;114;922611;-75
2022/10/23 01:49:03;;;;;;;4.98;2.55;;;;;;;9.30;75.06;101425.88;465239;114;923071;-76
2022/10/23 01:50:08;;;;;;;2.62;2.42;;;;;;;9.30;75.16;101426.73;462502;114;930788;-75
2022/10/23 01:51:14;;;;;;;3.39;2.22;;;;;;;9.30;75.09;101431.33;457931;115;922503;-76
2022/10/23 01:52:20;;;;;;;2.49;2.29;;;;;;;9.31;75.16;101422.98;453623;115;923136;-76
2022/10/23 01:53:29;;;;;;;3.15;2.53;;;;;;;9.32;75.12;101421.11;452907;115;922816;-76
2022/10/23 01:54:36;;;;;;;3.12;2.54;;;;;;;9.32;75.20;101424.65;460627;115;923003;-75
2022/10/23 01:55:41;;;;;;;2.51;2.31;;;;;;;9.33;75.15;101418.18;460631;115;922565;-75
2022/10/23 01:56:49;;;;;;;2.82;2.62;;;;;;;9.34;75.19;101419.87;460546;115;923419;-75
2022/10/23 01:57:55;;;;;;;2.81;2.38;;;;;;;9.35;75.21;101416.13;460469;115;923253;-76
2022/10/23 01:59:03;;;;;;;2.27;2.14;;;;;;;9.36;75.27;101419.70;460611;115;923165;-75
2022/10/23 02:00:12;;;;;;;2.38;2.18;;;;;;;9.36;75.21;101409.66;460529;115;923084;-75
2022/10/23 02:01:29;;;;;;;2.53;2.24;;;;;;;9.37;75.24;101416.77;452072;117;922671;-76
2022/10/23 02:02:36;;;;;;;2.16;1.89;;;;;;;9.38;75.33;101418.47;452716;115;922781;-75
2022/10/23 02:03:42;;;;;;;2.33;2.10;;;;;;;9.38;75.28;101413.02;460634;115;922543;-76
2022/10/23 02:04:49;;;;;;;2.68;2.32;;;;;;;9.39;75.27;101412.00;460624;115;922922;-76
2022/10/23 02:05:52;;;;;;;2.39;2.08;;;;;;;9.39;75.35;101402.98;459679;115;923034;-75
2022/10/23 02:06:55;;;;;;;2.37;2.05;;;;;;;9.39;75.36;101412.00;460817;115;922940;-76
2022/10/23 02:08:00;;;;;;;2.32;2.02;;;;;;;9.40;75.41;101410.97;460732;115;923056;-76
2022/10/23 02:09:04;;;;;;;3.46;2.30;;;;;;;9.41;75.42;101409.94;460628;115;922459;-76
2022/10/23 02:10:08;;;;;;;2.45;2.25;;;;;;;9.42;75.49;101411.64;460664;115;930780;-76
2022/10/23 02:11:17;;;;;;;2.31;2.14;;;;;;;9.43;75.45;101407.01;460697;115;922526;-76
2022/10/23 02:12:35;;;;;;;1.86;1.70;;;;;;;9.43;75.45;101402.41;459993;115;922840;-76
2022/10/23 02:14:04;;;;;;;2.44;1.68;;;;;;;9.55;75.56;101398.20;478260;110;947130;-75
2022/10/23 02:15:17;;;;;;;2.02;1.83;;;;;;;9.45;75.58;101408.53;471361;112;923073;-76
2022/10/23 02:16:46;;;;;;;2.00;1.87;;;;;;;9.45;75.57;101399.52;471280;112;923108;-76
2022/10/23 02:17:55;;;;;;;1.82;1.72;;;;;;;9.45;75.60;101403.08;442070;119;923386;-75
2022/10/23 02:19:20;;;;;;;1.97;1.71;;;;;;;9.45;75.76;101403.08;461875;112;923337;-76
2022/10/23 02:20:30;;;;;;;2.19;1.99;;;;;;;9.46;75.74;101404.78;471297;112;923012;-76
2022/10/23 02:21:35;;;;;;;;;;;;;;;9.46;75.74;101401.21;475213;112;922416;-75
2022/10/23 02:22:42;;;;;;;2.36;1.78;;;;;;;9.46;75.82;101398.48;470834;112;922456;-76
2022/10/23 02:23:52;;;;;;;1.99;1.77;;;;;;;9.44;75.84;101393.22;471060;112;922623;-77
2022/10/23 02:25:12;;;;;;;2.35;2.07;;;;;;;9.43;75.99;101402.41;471256;112;922980;-76
2022/10/23 02:26:22;;;;;;;1.96;1.84;;;;;;;9.44;75.98;101395.94;470808;112;922623;-76
2022/10/23 02:27:35;;;;;;;2.53;2.03;;;;;;;9.44;76.00;101390.50;461335;114;922617;-74
2022/10/23 02:28:44;;;;;;;1.97;1.76;;;;;;;9.45;76.09;101391.34;463186;112;922601;-76
2022/10/23 02:29:56;;;;;;;2.64;1.95;;;;;;;9.46;76.00;101390.32;470179;112;922656;-75
2022/10/23 02:31:02;;;;;;;1.94;1.79;;;;;;;9.46;76.00;101393.89;465246;114;922918;-75
2022/10/23 02:32:08;;;;;;;2.07;1.91;;;;;;;9.46;75.99;101383.00;464142;114;922953;-75
2022/10/23 02:33:13;;;;;;;2.41;1.98;;;;;;;9.48;76.02;101390.98;462984;114;922579;-76
2022/10/23 02:34:17;;;;;;;1.98;1.78;;;;;;;9.49;76.01;101376.32;468798;112;922514;-76
2022/10/23 02:35:23;;;;;;;2.03;1.82;;;;;;;9.50;75.99;101384.30;471417;112;923072;-76
2022/10/23 02:36:29;;;;;;;2.26;1.98;;;;;;;9.50;75.95;101389.75;470572;112;922525;-76
2022/10/23 02:37:33;;;;;;;2.31;2.01;;;;;;;9.51;75.90;101387.88;471426;112;923288;-75
2022/10/23 02:38:42;;;;;;;2.06;1.62;;;;;;;9.52;75.96;101384.12;471352;112;922830;-76
2022/10/23 02:39:45;;;;;;;1.88;1.59;;;;;;;9.52;76.00;101384.12;471283;112;923022;-75
2022/10/23 02:40:48;;;;;;;2.09;1.92;;;;;;;9.53;75.90;101374.94;471476;112;922792;-75
2022/10/23 02:41:54;;;;;;;2.01;1.84;;;;;;;9.53;75.92;101378.50;471460;112;922918;-75
2022/10/23 02:43:13;;;;;;;1.81;1.71;;;;;;;9.53;75.92;101375.78;470037;112;922554;-76
2022/10/23 02:44:32;;;;;;;2.83;2.07;;;;;;;9.52;75.81;101371.36;470299;112;923364;-75
2022/10/23 02:46:01;;;;;;;2.10;1.97;;;;;;;9.51;75.73;101372.39;471283;112;922568;-75
2022/10/23 02:47:07;;;;;;;2.07;1.93;;;;;;;9.49;75.79;101377.17;468353;112;922672;-77
2022/10/23 02:48:20;;;;;;;3.38;2.61;;;;;;;9.46;75.83;101376.71;462303;114;922510;-76
2022/10/23 02:49:49;;;;;;;2.19;1.74;;;;;;;9.44;75.80;101374.17;463064;114;923042;-75
2022/10/23 02:51:08;;;;;;;2.98;2.00;;;;;;;9.42;75.86;101376.25;463009;114;922540;-75
2022/10/23 02:52:18;;;;;;;2.37;1.98;;;;;;;9.40;75.85;101370.14;461898;114;922684;-76
2022/10/23 02:53:36;;;;;;;1.87;1.74;;;;;;;9.37;75.92;101367.78;463016;114;922804;-75
2022/10/23 02:54:49;;;;;;;2.59;2.01;;;;;;;9.37;75.94;101362.34;453906;116;923264;-75
2022/10/23 02:56:21;;;;;;;2.39;2.22;;;;;;;9.35;75.93;101364.42;455733;114;922998;-75
2022/10/23 02:57:28;;;;;;;2.33;2.07;;;;;;;9.34;76.01;101364.59;463183;114;922777;-75
2022/10/23 02:58:37;;;;;;;2.92;2.46;;;;;;;9.33;76.04;101355.59;462714;114;923020;-76
2022/10/23 03:00:00;;;;;;;2.16;1.98;;;;;;;9.32;76.14;101355.80;462793;114;922908;-75
2022/10/23 03:01:07;;;;;;;2.14;2.02;;;;;;;9.31;76.14;101360.39;463121;114;922586;-75
2022/10/23 03:02:20;;;;;;;2.22;2.00;;;;;;;9.30;76.07;101355.13;463082;114;923068;-75
2022/10/23 03:03:27;;;;;;;2.29;2.06;;;;;;;9.29;76.08;101357.00;463059;114;922615;-76
2022/10/23 03:04:39;;;;;;;2.96;2.18;;;;;;;9.38;76.10;101353.14;477124;110;946937;-75
2022/10/23 03:05:45;;;;;;;3.73;2.47;;;;;;;9.26;76.04;101351.95;465432;114;922641;-75
2022/10/23 03:06:50;;;;;;;2.26;2.11;;;;;;;9.24;76.14;101348.56;465466;113;922522;-74
2022/10/23 03:07:54;;;;;;;6.16;2.15;;;;;;;9.23;76.12;101352.30;465388;114;930351;-75
2022/10/23 03:09:00;;;;;;;2.62;2.12;;;;;;;9.21;76.06;101344.32;461882;114;923155;-76
2022/10/23 03:10:03;;;;;;;2.56;2.36;;;;;;;9.21;76.09;101348.91;457347;116;922457;-75
2022/10/23 03:11:06;;;;;;;2.34;2.15;;;;;;;9.20;76.00;101342.66;450496;117;922623;-76
2022/10/23 03:12:09;;;;;;;2.87;2.32;;;;;;;9.19;76.08;101342.84;450697;116;922943;-75
2022/10/23 03:13:12;;;;;;;2.44;2.24;;;;;;;9.19;76.09;101342.84;457498;116;923003;-75
2022/10/23 03:14:18;;;;;;;2.50;2.26;;;;;;;9.19;76.10;101342.84;457257;114;922832;-76
2022/10/23 03:15:21;;;;;;;2.51;2.29;;;;;;;9.18;76.06;101336.55;457512;116;922810;-76
2022/10/23 03:16:24;;;;;;;3.00;2.71;;;;;;;9.18;76.13;101331.11;457307;115;922517;-75
2022/10/23 03:17:29;;;;;;;3.36;2.36;;;;;;;9.19;76.22;101329.23;447939;118;923058;-77
2022/10/23 03:18:33;;;;;;;2.59;2.30;;;;;;;9.18;76.23;101330.26;448391;116;922974;-76
2022/10/23 03:19:37;;;;;;;2.81;2.61;;;;;;;9.19;76.21;101326.52;457307;116;922535;-76
2022/10/23 03:20:40;;;;;;;2.54;2.34;;;;;;;9.20;76.22;101322.77;457327;116;930428;-76
2022/10/23 03:21:43;;;;;;;2.79;2.57;;;;;;;9.20;76.26;101330.92;457359;116;922861;-76
2022/10/23 03:22:46;;;;;;;3.09;2.79;;;;;;;9.21;76.20;101327.99;457387;116;922587;-76
2022/10/23 03:23:49;;;;;;;2.67;2.47;;;;;;;9.21;76.18;101325.27;457339;116;922936;-76
2022/10/23 03:24:54;;;;;;;2.49;2.25;;;;;;;9.22;76.24;101331.56;457198;116;923061;-75
2022/10/23 03:25:57;;;;;;;2.96;2.64;;;;;;;9.23;76.24;101327.81;457369;116;922626;-75
2022/10/23 03:27:04;;;;;;;2.71;2.43;;;;;;;9.25;76.23;101324.91;456574;116;922608;-75
2022/10/23 03:28:07;;;;;;;2.96;2.64;;;;;;;9.25;76.24;101320.32;457385;116;922557;-75
2022/10/23 03:29:10;;;;;;;2.62;2.37;;;;;;;9.26;76.17;101321.17;457354;116;922637;-75
2022/10/23 03:30:18;;;;;;;2.54;2.34;;;;;;;9.28;76.28;101329.97;454932;116;922634;-75
2022/10/23 03:31:23;;;;;;;2.58;2.34;;;;;;;9.28;76.20;101317.21;454037;116;923007;-75
2022/10/23 03:32:28;;;;;;;2.99;2.50;;;;;;;9.29;76.22;101324.34;449368;117;922838;-75
2022/10/23 03:33:31;;;;;;;3.23;2.52;;;;;;;9.31;76.23;101327.73;449680;116;922520;-76
2022/10/23 03:34:36;;;;;;;2.55;2.33;;;;;;;9.32;76.20;101321.23;448881;117;922589;-77
2022/10/23 03:35:40;;;;;;;2.98;2.72;;;;;;;9.33;76.19;101320.20;442876;119;923697;-75
2022/10/23 03:36:43;;;;;;;2.42;2.21;;;;;;;9.33;76.19;101322.92;435760;119;930522;-75
2022/10/23 03:37:46;;;;;;;2.88;2.41;;;;;;;9.34;76.18;101316.45;443061;118;922704;-75
2022/10/23 03:38:49;;;;;;;3.82;2.34;;;;;;;9.36;76.15;101321.72;449601;116;922616;-76
2022/10/23 03:39:52;;;;;;;2.59;2.39;;;;;;;9.36;76.21;101316.28;449643;118;923485;-76
2022/10/23 03:40:55;;;;;;;2.85;2.52;;;;;;;9.37;76.16;101318.78;449651;118;923622;-76
2022/10/23 03:41:58;;;;;;;3.41;2.70;;;;;;;9.37;76.10;101307.91;449604;117;923057;-76
2022/10/23 03:43:01;;;;;;;3.76;2.50;;;;;;;9.38;76.08;101314.19;450168;116;922627;-76
2022/10/23 03:44:05;;;;;;;2.69;2.40;;;;;;;9.37;76.01;101318.78;457340;114;922608;-76
2022/10/23 03:45:09;;;;;;;2.69;2.29;;;;;;;9.37;76.03;101307.91;457507;116;922842;-76
2022/10/23 03:46:12;;;;;;;4.56;3.18;;;;;;;9.38;76.09;101304.16;457479;115;923229;-75
2022/10/23 03:47:15;;;;;;;2.62;2.42;;;;;;;9.37;76.13;101310.63;457519;116;922660;-76
2022/10/23 03:48:18;;;;;;;3.76;2.51;;;;;;;9.38;76.14;101304.16;457508;115;923451;-74
2022/10/23 03:49:22;;;;;;;3.12;2.62;;;;;;;9.39;76.15;101305.84;450347;116;922694;-73
2022/10/23 03:50:25;;;;;;;2.83;2.59;;;;;;;9.40;76.11;101307.54;450718;116;930563;-75
2022/10/23 03:51:29;;;;;;;2.60;2.36;;;;;;;9.40;76.11;101304.81;457395;116;923062;-75
2022/10/23 03:52:33;;;;;;;3.46;2.64;;;;;;;9.42;76.14;101304.64;455703;116;922553;-76
2022/10/23 03:53:36;;;;;;;2.66;2.45;;;;;;;9.42;76.13;101300.04;455735;116;930841;-75
2022/10/23 03:54:39;;;;;;;2.50;2.20;;;;;;;9.44;76.10;101308.84;455803;116;923064;-76
2022/10/23 03:55:43;;;;;;;3.24;2.87;;;;;;;9.44;76.16;101306.12;455815;116;923047;-76
2022/10/23 03:56:46;;;;;;;3.16;2.34;;;;;;;9.45;76.12;101301.52;455625;116;922903;-75
2022/10/23 03:57:49;;;;;;;2.44;2.24;;;;;;;9.46;76.20;101305.94;455719;116;930308;-76
2022/10/23 03:58:54;;;;;;;2.70;2.50;;;;;;;9.45;76.15;101305.09;447102;116;923498;-76
2022/10/23 03:59:59;;;;;;;3.19;2.40;;;;;;;9.47;76.21;101303.03;455618;116;922913;-75
2022/10/23 04:01:04;;;;;;;3.73;3.04;;;;;;;9.49;76.13;101302.82;455587;116;923000;-76
2022/10/23 04:02:07;;;;;;;2.96;2.54;;;;;;;9.50;76.13;101296.34;455832;116;922402;-76
2022/10/23 04:03:10;;;;;;;3.48;2.58;;;;;;;9.51;76.20;101296.16;455806;116;923496;-75
2022/10/23 04:04:13;;;;;;;2.78;2.56;;;;;;;9.52;76.13;101292.41;455756;116;922842;-76
2022/10/23 04:05:16;;;;;;;4.67;2.54;;;;;;;9.53;76.14;101291.39;455992;116;922508;-76
2022/10/23 04:06:21;;;;;;;2.64;2.38;;;;;;;9.54;76.06;101286.75;446265;118;922548;-77
2022/10/23 04:07:24;;;;;;;2.61;2.39;;;;;;;9.55;76.02;101283.01;454099;117;922579;-76
2022/10/23 04:08:27;;;;;;;3.22;2.84;;;;;;;9.55;76.08;101283.85;454109;117;922502;-76
2022/10/23 04:09:30;;;;;;;2.97;2.47;;;;;;;9.57;76.03;101289.11;438969;121;923153;-76
2022/10/23 04:10:33;;;;;;;4.00;2.57;;;;;;;9.57;76.03;101287.23;447870;116;923086;-75
2022/10/23 04:11:36;;;;;;;2.77;2.46;;;;;;;9.58;76.04;101294.37;456029;116;922481;-75
2022/10/23 04:12:39;;;;;;;3.36;2.40;;;;;;;9.59;76.07;101290.59;456015;116;922878;-76
2022/10/23 04:13:43;;;;;;;3.24;2.81;;;;;;;9.62;76.05;101292.11;455895;116;922486;-75
2022/10/23 04:14:46;;;;;;;2.94;2.61;;;;;;;9.63;76.10;101286.48;438898;121;922603;-75
2022/10/23 04:15:50;;;;;;;2.53;2.33;;;;;;;9.65;76.06;101290.89;447812;116;922758;-76
2022/10/23 04:16:53;;;;;;;2.91;2.64;;;;;;;9.66;76.05;101289.83;457311;116;922558;-76
2022/10/23 04:17:56;;;;;;;3.27;2.41;;;;;;;9.68;75.99;101282.33;457471;116;923526;-75
2022/10/23 04:18:59;;;;;;;3.32;3.02;;;;;;;9.69;76.04;101276.70;457444;116;923000;-76
2022/10/23 04:20:02;;;;;;;2.44;2.16;;;;;;;9.70;75.96;101280.27;457462;116;922604;-75
2022/10/23 04:21:05;;;;;;;2.91;2.70;;;;;;;9.71;75.96;101279.20;457506;116;922539;-76
2022/10/23 04:22:08;;;;;;;3.05;2.75;;;;;;;9.73;75.92;101282.59;457469;116;922602;-75
2022/10/23 04:23:11;;;;;;;2.90;2.50;;;;;;;9.73;75.91;101279.88;457519;116;922799;-77
2022/10/23 04:24:16;;;;;;;3.13;2.72;;;;;;;9.74;75.83;101276.96;448792;118;922580;-74
2022/10/23 04:25:19;;;;;;;3.81;2.54;;;;;;;9.75;75.79;101277.81;449343;116;923268;-76
2022/10/23 04:26:22;;;;;;;2.99;2.59;;;;;;;9.76;75.74;101276.78;457486;116;923021;-77
2022/10/23 04:27:26;;;;;;;3.20;2.92;;;;;;;9.76;75.76;101274.05;457309;116;922929;-77
2022/10/23 04:28:31;;;;;;;3.60;3.17;;;;;;;9.76;75.75;101271.33;448845;118;922832;-76
2022/10/23 04:29:33;;;;;;;3.24;2.86;;;;;;;9.76;75.66;101274.05;449320;116;923644;-77
2022/10/23 04:30:37;;;;;;;4.91;2.56;;;;;;;9.77;75.74;101272.99;457492;116;922696;-75
2022/10/23 04:31:40;;;;;;;3.44;2.96;;;;;;;9.77;75.65;101267.55;449063;118;922671;-75
2022/10/23 04:32:43;;;;;;;2.75;2.52;;;;;;;9.76;75.67;101263.98;449319;116;922921;-76
2022/10/23 04:33:46;;;;;;;3.17;2.84;;;;;;;9.78;75.63;101271.97;455686;116;922960;-76
2022/10/23 04:34:51;;;;;;;3.17;2.67;;;;;;;9.79;75.61;101268.21;445541;118;922989;-75
2022/10/23 04:35:54;;;;;;;2.91;2.48;;;;;;;9.79;75.70;101269.06;448488;118;922562;-76
2022/10/23 04:36:57;;;;;;;3.02;2.60;;;;;;;9.80;75.58;101268.02;448517;118;923077;-75
2022/10/23 04:38:00;;;;;;;3.87;2.82;;;;;;;9.80;75.57;101265.30;448428;118;922517;-75
2022/10/23 04:39:04;;;;;;;2.78;2.49;;;;;;;9.81;75.61;101261.55;448399;118;922924;-75
2022/10/23 04:40:08;;;;;;;3.47;2.74;;;;;;;9.82;75.48;101259.64;456699;116;923051;-76
2022/10/23 04:41:12;;;;;;;3.34;3.03;;;;;;;9.83;75.48;101264.05;448844;118;922586;-75
2022/10/23 04:42:16;;;;;;;3.14;2.50;;;;;;;9.83;75.43;101264.05;449436;116;923611;-75
2022/10/23 04:43:19;;;;;;;3.52;3.22;;;;;;;9.84;75.45;101249.41;457484;116;923063;-76
2022/10/23 04:44:22;;;;;;;3.34;3.04;;;;;;;9.83;75.40;101256.73;457435;116;922754;-77
2022/10/23 04:45:26;;;;;;;3.55;2.98;;;;;;;9.84;75.41;101252.98;457392;116;922957;-76
2022/10/23 04:46:29;;;;;;;4.36;2.88;;;;;;;9.85;75.43;101254.67;457335;116;930519;-77
2022/10/23 04:47:32;;;;;;;3.12;2.83;;;;;;;9.86;75.49;101247.34;457449;116;923363;-76
2022/10/23 04:48:35;;;;;;;3.22;2.76;;;;;;;9.86;75.40;101248.19;457480;116;922651;-75
2022/10/23 04:49:58;;;;;;;2.86;2.57;;;;;;;9.87;75.39;101246.28;456625;116;922574;-76
2022/10/23 04:51:12;;;;;;;4.16;3.18;;;;;;;9.88;75.37;101253.42;448755;118;923266;-75
2022/10/23 04:52:29;;;;;;;3.62;3.33;;;;;;;9.87;75.39;101255.30;440984;120;923255;-76
2022/10/23 04:53:37;;;;;;;11.00;3.39;;;;;;;9.87;75.29;101249.00;448910;118;922734;-75
2022/10/23 04:54:49;;;;;;;5.01;3.56;;;;;;;9.87;75.34;101251.73;448091;118;922634;-75
2022/10/23 04:56:06;;;;;;;3.74;3.23;;;;;;;9.86;75.25;101245.47;447974;118;922902;-75
2022/10/23 04:57:13;;;;;;;3.58;3.28;;;;;;;9.87;75.29;101254.45;448246;118;922702;-77
2022/10/23 04:58:19;;;;;;;3.23;3.03;;;;;;;9.87;75.28;101251.73;446649;118;923105;-76
2022/10/23 04:59:22;;;;;;;3.08;2.88;;;;;;;9.88;75.33;101258.87;449609;118;922521;-77
2022/10/23 05:00:25;;;;;;;3.94;3.19;;;;;;;9.88;75.26;101251.54;449590;118;930755;-75
2022/10/23 05:01:30;;;;;;;3.37;3.07;;;;;;;9.89;75.25;101247.78;449498;118;922992;-74
2022/10/23 05:02:33;;;;;;;3.24;2.78;;;;;;;9.90;75.13;101254.08;441411;120;922616;-75
2022/10/23 05:03:37;;;;;;;3.99;3.34;;;;;;;9.90;75.13;101252.20;441784;118;930616;-76
2022/10/23 05:04:40;;;;;;;3.75;2.84;;;;;;;9.92;75.15;101263.73;449466;118;922607;-76
2022/10/23 05:06:04;;;;;;;4.04;3.43;;;;;;;9.93;75.14;101264.58;428441;123;930754;-76
2022/10/23 05:07:21;;;;;;;3.28;2.92;;;;;;;9.94;75.15;101252.64;427813;123;923296;-76
2022/10/23 05:08:29;;;;;;;3.49;3.02;;;;;;;9.95;75.16;101257.91;422285;123;922987;-76
2022/10/23 05:09:52;;;;;;;4.92;3.12;;;;;;;9.96;75.22;101254.16;418989;126;922817;-76
2022/10/23 05:11:03;;;;;;;3.83;2.98;;;;;;;10.08;75.21;101250.91;477006;110;946939;-76
2022/10/23 05:12:14;;;;;;;3.64;3.03;;;;;;;9.98;75.16;101257.51;465050;113;922666;-75